createdAt,value
2022-12-16T00:01:50.852Z,97108.34
2022-12-16T00:04:21.427Z,97090.13
2022-12-16T00:06:51.993Z,97076.59
2022-12-16T00:09:21.217Z,97072.16
2022-12-16T00:11:50.396Z,97055.16
2022-12-16T00:14:20.901Z,97046.44
2022-12-16T00:17:02.168Z,97008.50
2022-12-16T00:19:31.708Z,96985.91
2022-12-16T00:22:02.559Z,96977.53
2022-12-16T00:25:23.311Z,96973.59
2022-12-16T00:27:56.190Z,96976.72
2022-12-16T00:31:48.187Z,96987.88
2022-12-16T00:34:18.422Z,97002.19
2022-12-16T00:37:38.956Z,97008.16
2022-12-16T00:40:09.739Z,97015.31
2022-12-16T00:42:39.036Z,97013.34
2022-12-16T00:45:09.323Z,97009.41
2022-12-16T00:47:42.451Z,97018.09
2022-12-16T00:50:16.253Z,97015.81
2022-12-16T00:52:47.480Z,97002.38
2022-12-16T00:55:17.387Z,97014.69
2022-12-16T00:57:46.593Z,97023.03
2022-12-16T01:00:19.395Z,97019.09
2022-12-16T01:02:50.770Z,97025.81
2022-12-16T01:05:27.079Z,97033.69
2022-12-16T01:08:28.334Z,97032.41
2022-12-16T01:11:00.101Z,97046.94
2022-12-16T01:14:13.646Z,97037.13
2022-12-16T01:16:42.670Z,97034.75
2022-12-16T01:19:12.047Z,97031.53
2022-12-16T01:21:41.364Z,97016.44
2022-12-16T01:24:29.042Z,97006.22
2022-12-16T01:26:58.338Z,96996.78
2022-12-16T01:29:27.343Z,96987.28
2022-12-16T01:32:26.703Z,96968.28
2022-12-16T01:34:56.494Z,96954.03
2022-12-16T01:37:25.937Z,96953.63
2022-12-16T01:39:56.615Z,96940.56
2022-12-16T01:43:42.422Z,96942.97
2022-12-16T01:46:22.118Z,96949.41
2022-12-16T01:48:58.650Z,96950.06
2022-12-16T01:51:35.595Z,96956.47
2022-12-16T01:54:11.437Z,96941.09
2022-12-16T01:56:48.181Z,96921.69
2022-12-16T01:59:21.291Z,96922.44
2022-12-16T02:01:50.474Z,96924.03
2022-12-16T02:04:19.873Z,96923.25
2022-12-16T02:06:49.364Z,96933.63
2022-12-16T02:09:19.873Z,96930.03
2022-12-16T02:12:16.462Z,96912.28
2022-12-16T02:15:21.794Z,96903.63
2022-12-16T02:18:02.551Z,96914.34
2022-12-16T02:21:33.535Z,96929.81
2022-12-16T02:24:54.412Z,96918.72
2022-12-16T02:28:14.400Z,96916.28
2022-12-16T02:30:56.768Z,96907.16
2022-12-16T02:38:16.827Z,96919.47
2022-12-16T02:40:53.170Z,96915.47
2022-12-16T02:43:51.844Z,96905.22
2022-12-16T02:46:27.559Z,96890.97
2022-12-16T02:48:57.167Z,96896.50
2022-12-16T02:51:28.167Z,96906.78
2022-12-16T02:53:57.241Z,96886.25
2022-12-16T02:57:22.687Z,96875.97
2022-12-16T02:59:59.779Z,96889.00
2022-12-16T03:02:39.559Z,96894.53
2022-12-16T03:05:15.575Z,96879.13
2022-12-16T03:07:45.983Z,96886.25
2022-12-16T03:10:22.511Z,96877.56
2022-12-16T03:12:52.663Z,96864.94
2022-12-16T03:15:26.520Z,96845.97
2022-12-16T03:17:58.376Z,96840.44
2022-12-16T03:20:51.426Z,96851.53
2022-12-16T03:23:27.329Z,96851.50
2022-12-16T03:26:04.781Z,96860.63
2022-12-16T03:28:47.797Z,96867.34
2022-12-16T03:31:31.242Z,96868.16
2022-12-16T03:34:11.930Z,96857.88
2022-12-16T03:36:45.373Z,96854.72
2022-12-16T03:39:16.894Z,96850.38
2022-12-16T03:41:48.450Z,96833.78
2022-12-16T03:44:19.169Z,96834.59
2022-12-16T03:46:49.100Z,96848.41
2022-12-16T03:49:19.509Z,96851.97
2022-12-16T03:51:48.537Z,96829.03
2022-12-16T03:54:19.121Z,96845.25
2022-12-16T03:56:48.251Z,96856.31
2022-12-16T03:59:17.594Z,96845.31
2022-12-16T04:01:46.772Z,96835.38
2022-12-16T04:04:16.048Z,96839.72
2022-12-16T04:07:06.757Z,96831.44
2022-12-16T04:09:35.737Z,96832.63
2022-12-16T04:12:42.367Z,96819.94
2022-12-16T04:15:29.810Z,96808.47
2022-12-16T04:18:16.078Z,96800.13
2022-12-16T04:21:06.670Z,96782.72
2022-12-16T04:23:56.889Z,96795.38
2022-12-16T04:26:25.965Z,96799.31
2022-12-16T04:28:55.090Z,96794.19
2022-12-16T04:31:24.523Z,96777.22
2022-12-16T04:34:14.300Z,96781.94
2022-12-16T04:37:01.068Z,96783.94
2022-12-16T04:39:49.011Z,96788.66
2022-12-16T04:43:00.848Z,96789.09
2022-12-16T04:46:05.493Z,96782.00
2022-12-16T04:48:48.356Z,96797.03
2022-12-16T04:51:35.270Z,96803.75
2022-12-16T04:54:53.637Z,96805.75
2022-12-16T04:57:40.522Z,96807.75
2022-12-16T05:00:28.314Z,96804.56
2022-12-16T05:03:15.509Z,96797.03
2022-12-16T05:06:02.403Z,96803.38
2022-12-16T05:08:49.400Z,96789.94
2022-12-16T05:11:43.812Z,96789.91
2022-12-16T05:14:31.359Z,96785.94
2022-12-16T05:17:17.828Z,96795.41
2022-12-16T05:20:04.424Z,96781.97
2022-12-16T05:22:50.957Z,96783.94
2022-12-16T05:25:37.415Z,96782.78
2022-12-16T05:28:26.290Z,96785.13
2022-12-16T05:31:17.320Z,96802.94
2022-12-16T05:34:04.023Z,96804.09
2022-12-16T05:36:50.441Z,96803.69
2022-12-16T05:39:37.090Z,96817.50
2022-12-16T05:42:24.903Z,96814.72
2022-12-16T05:45:14.673Z,96809.59
2022-12-16T05:48:01.063Z,96807.19
2022-12-16T05:50:47.334Z,96804.06
2022-12-16T05:53:34.430Z,96804.47
2022-12-16T05:56:21.094Z,96815.16
2022-12-16T05:59:07.730Z,96824.66
2022-12-16T06:01:55.657Z,96816.00
2022-12-16T06:04:43.442Z,96817.59
2022-12-16T06:07:29.808Z,96818.38
2022-12-16T06:10:16.043Z,96842.13
2022-12-16T06:13:05.744Z,96839.00
2022-12-16T06:15:53.202Z,96848.44
2022-12-16T06:18:40.946Z,96861.09
2022-12-16T06:21:27.535Z,96865.81
2022-12-16T06:24:14.025Z,96847.69
2022-12-16T06:27:00.456Z,96875.03
2022-12-16T06:29:47.098Z,96869.50
2022-12-16T06:32:42.051Z,96879.38
2022-12-16T06:35:29.719Z,96894.84
2022-12-16T06:38:16.136Z,96894.78
2022-12-16T06:41:02.604Z,96904.22
2022-12-16T06:43:49.237Z,96888.75
2022-12-16T06:46:35.711Z,96882.38
2022-12-16T06:49:22.288Z,96883.19
2022-12-16T06:52:10.276Z,96887.16
2022-12-16T06:54:56.775Z,96891.09
2022-12-16T06:57:43.471Z,96900.63
2022-12-16T07:00:31.118Z,96908.56
2022-12-16T07:03:17.132Z,96910.94
2022-12-16T07:06:03.693Z,96913.75
2022-12-16T07:08:51.534Z,96914.94
2022-12-16T07:11:38.015Z,96920.47
2022-12-16T07:14:24.402Z,96938.66
2022-12-16T07:17:16.782Z,96942.22
2022-12-16T07:20:03.790Z,96946.53
2022-12-16T07:22:57.648Z,96944.19
2022-12-16T07:25:49.363Z,96949.78
2022-12-16T07:28:35.947Z,96956.88
2022-12-16T07:31:22.461Z,96958.56
2022-12-16T07:34:09.091Z,96957.72
2022-12-16T07:36:55.576Z,96954.50
2022-12-16T07:39:44.807Z,96953.75
2022-12-16T07:42:34.171Z,96979.13
2022-12-16T07:45:20.845Z,96984.63
2022-12-16T07:48:07.958Z,96993.38
2022-12-16T07:50:58.135Z,96972.75
2022-12-16T07:53:44.572Z,96975.91
2022-12-16T07:56:31.700Z,96970.00
2022-12-16T07:59:19.265Z,96971.59
2022-12-16T08:02:05.824Z,96968.44
2022-12-16T08:04:52.396Z,96971.19
2022-12-16T08:07:39.055Z,96976.44
2022-12-16T08:10:26.636Z,96976.13
2022-12-16T08:13:25.205Z,96972.56
2022-12-16T08:16:18.819Z,96966.63
2022-12-16T08:19:10.784Z,96962.34
2022-12-16T08:21:57.982Z,96984.53
2022-12-16T08:24:49.716Z,96975.41
2022-12-16T08:27:39.522Z,96980.16
2022-12-16T08:30:27.748Z,96979.31
2022-12-16T08:36:18.039Z,97000.69
2022-12-16T08:39:04.732Z,96992.00
2022-12-16T08:41:53.236Z,97001.44
2022-12-16T08:44:40.663Z,96995.91
2022-12-16T08:47:28.135Z,97010.56
2022-12-16T08:50:30.545Z,97010.16
2022-12-16T08:53:16.829Z,97001.06
2022-12-16T08:56:03.118Z,97006.28
2022-12-16T08:58:45.919Z,97007.09
2022-12-16T09:01:32.615Z,97006.28
2022-12-16T09:04:19.138Z,97011.06
2022-12-16T09:07:07.047Z,97028.91
2022-12-16T09:09:53.527Z,97028.50
2022-12-16T09:12:41.038Z,97037.22
2022-12-16T09:15:28.721Z,97034.06
2022-12-16T09:18:15.893Z,97035.28
2022-12-16T09:21:02.345Z,97044.41
2022-12-16T09:23:50.234Z,97040.47
2022-12-16T09:26:37.614Z,97040.06
2022-12-16T09:29:24.322Z,97042.47
2022-12-16T09:32:10.984Z,97052.38
2022-12-16T09:34:57.456Z,97041.66
2022-12-16T09:37:52.483Z,97048.41
2022-12-16T09:40:40.555Z,97044.44
2022-12-16T09:43:44.751Z,97040.84
2022-12-16T09:46:42.416Z,97026.97
2022-12-16T09:49:41.029Z,97029.38
2022-12-16T09:52:34.608Z,97025.41
2022-12-16T09:55:22.669Z,97028.59
2022-12-16T09:58:10.579Z,97040.47
2022-12-16T10:00:57.327Z,97057.13
2022-12-16T10:03:55.424Z,97057.50
2022-12-16T10:06:56.205Z,97067.44
2022-12-16T10:09:49.284Z,97066.63
2022-12-16T10:12:49.552Z,97090.84
2022-12-16T10:15:53.991Z,97072.97
2022-12-16T10:18:57.774Z,97067.41
2022-12-16T10:21:51.492Z,97066.59
2022-12-16T10:24:51.298Z,97066.59
2022-12-16T10:27:45.263Z,97065.00
2022-12-16T10:30:33.754Z,97075.34
2022-12-16T10:33:21.936Z,97078.53
2022-12-16T10:36:12.008Z,97092.81
2022-12-16T10:39:03.335Z,97076.16
2022-12-16T10:41:54.130Z,97086.47
2022-12-16T10:44:47.688Z,97080.91
2022-12-16T10:47:35.248Z,97076.16
2022-12-16T10:50:24.482Z,97087.25
2022-12-16T10:53:17.622Z,97071.38
2022-12-16T10:56:23.484Z,97079.31
2022-12-16T10:59:15.049Z,97084.44
2022-12-16T11:02:14.451Z,97093.53
2022-12-16T11:05:01.735Z,97105.44
2022-12-16T11:07:56.560Z,97103.84
2022-12-16T11:10:51.814Z,97105.44
2022-12-16T11:13:44.673Z,97110.22
2022-12-16T11:16:38.492Z,97116.56
2022-12-16T11:19:38.720Z,97121.31
2022-12-16T11:22:31.048Z,97124.47
2022-12-16T11:25:34.548Z,97115.78
2022-12-16T11:28:30.390Z,97118.19
2022-12-16T11:31:20.570Z,97113.44
2022-12-16T11:34:08.604Z,97123.72
2022-12-16T11:36:59.471Z,97140.00
2022-12-16T11:39:49.042Z,97144.38
2022-12-16T11:42:43.907Z,97130.06
2022-12-16T11:45:34.918Z,97124.94
2022-12-16T11:48:32.563Z,97121.38
2022-12-16T11:51:23.340Z,97122.19
2022-12-16T11:54:16.546Z,97138.81
2022-12-16T11:57:05.636Z,97142.00
2022-12-16T11:59:59.514Z,97153.91
2022-12-16T12:02:53.616Z,97149.94
2022-12-16T12:05:48.995Z,97138.03
2022-12-16T12:08:44.106Z,97153.50
2022-12-16T12:11:37.636Z,97161.81
2022-12-16T12:14:37.327Z,97176.91
2022-12-16T12:17:46.391Z,97161.84
2022-12-16T12:20:57.070Z,97168.94
2022-12-16T12:23:58.634Z,97153.88
2022-12-16T12:26:51.192Z,97153.44
2022-12-16T12:29:48.543Z,97168.09
2022-12-16T12:32:47.407Z,97179.97
2022-12-16T12:35:50.013Z,97187.50
2022-12-16T12:38:42.708Z,97190.28
2022-12-16T12:41:37.140Z,97203.69
2022-12-16T12:44:42.396Z,97218.69
2022-12-16T12:47:38.015Z,97223.84
2022-12-16T12:50:31.696Z,97223.44
2022-12-16T12:53:33.557Z,97213.16
2022-12-16T12:56:29.656Z,97213.56
2022-12-16T12:59:23.291Z,97197.72
2022-12-16T13:02:12.370Z,97198.13
2022-12-16T13:05:09.979Z,97225.09
2022-12-16T13:08:04.400Z,97233.78
2022-12-16T13:10:55.130Z,97221.50
2022-12-16T13:13:53.391Z,97223.50
2022-12-16T13:17:25.906Z,97234.59
2022-12-16T13:20:56.759Z,97258.38
2022-12-16T13:23:50.220Z,97264.69
2022-12-16T13:26:39.791Z,97262.31
2022-12-16T13:29:39.007Z,97269.47
2022-12-16T13:32:37.010Z,97273.84
2022-12-16T13:35:36.632Z,97284.16
2022-12-16T13:38:39.276Z,97284.53
2022-12-16T15:01:44.839Z,97368.19
2022-12-16T15:04:39.814Z,97371.34
2022-12-16T15:08:18.284Z,97386.41
2022-12-16T15:11:11.802Z,97382.56
2022-12-16T15:14:03.691Z,97393.56
2022-12-16T15:17:03.784Z,97395.22
2022-12-16T15:20:03.551Z,97400.72
2022-12-16T15:23:05.777Z,97410.94
2022-12-16T15:25:57.008Z,97423.16
2022-12-16T15:28:58.798Z,97421.88
2022-12-16T15:31:50.561Z,97425.03
2022-12-16T15:35:04.680Z,97428.22
2022-12-16T15:38:03.815Z,97428.63
2022-12-16T15:41:00.538Z,97421.81
2022-12-16T15:43:57.423Z,97420.59
2022-12-16T15:46:48.429Z,97423.78
2022-12-16T15:49:39.298Z,97424.53
2022-12-16T15:52:51.864Z,97437.66
2022-12-16T15:55:47.644Z,97455.66
2022-12-16T15:58:41.067Z,97460.88
2022-12-16T16:01:30.596Z,97465.75
2022-12-16T16:04:34.292Z,97462.81
2022-12-16T16:07:22.949Z,97466.28
2022-12-16T16:10:27.447Z,97456.63
2022-12-16T16:13:13.903Z,97456.09
2022-12-16T16:16:02.014Z,97459.44
2022-12-16T16:18:48.695Z,97477.41
2022-12-16T16:21:40.656Z,97477.00
2022-12-16T16:24:28.593Z,97489.22
2022-12-16T16:27:20.057Z,97483.53
2022-12-16T16:30:20.650Z,97481.19
2022-12-16T16:33:07.277Z,97474.84
2022-12-16T16:35:53.951Z,97472.41
2022-12-16T16:38:40.592Z,97481.25
2022-12-16T16:41:33.257Z,97478.78
2022-12-16T16:44:21.101Z,97484.31
2022-12-16T16:47:07.674Z,97494.16
2022-12-16T16:49:59.522Z,97494.56
2022-12-16T16:52:47.045Z,97479.53
2022-12-16T16:55:36.496Z,97481.78
2022-12-16T16:58:26.263Z,97480.28
2022-12-16T17:02:06.721Z,97482.34
2022-12-16T17:05:13.370Z,97487.44
2022-12-16T17:09:03.976Z,97494.56
2022-12-16T17:11:52.570Z,97502.13
2022-12-16T17:14:42.635Z,97499.78
2022-12-16T17:17:33.322Z,97497.50
2022-12-16T17:20:19.917Z,97500.31
2022-12-16T17:23:16.007Z,97502.28
2022-12-16T17:26:02.543Z,97500.53
2022-12-16T17:28:49.166Z,97514.72
2022-12-16T17:31:37.294Z,97523.28
2022-12-16T17:34:31.029Z,97528.81
2022-12-16T17:37:17.539Z,97530.94
2022-12-16T17:40:04.306Z,97539.91
2022-12-16T17:42:59.283Z,97536.59
2022-12-16T17:45:45.940Z,97540.50
2022-12-16T17:48:32.341Z,97546.47
2022-12-16T17:51:22.512Z,97542.25
2022-12-16T17:54:22.676Z,97537.41
2022-12-16T17:57:14.503Z,97533.41
2022-12-16T18:00:01.016Z,97543.69
2022-12-16T18:02:47.806Z,97541.25
2022-12-16T18:05:41.121Z,97547.53
2022-12-16T18:08:30.368Z,97548.28
2022-12-16T18:11:17.051Z,97543.53
2022-12-16T18:14:04.448Z,97545.09
2022-12-16T18:16:50.189Z,97561.06
2022-12-16T18:19:36.896Z,97548.00
2022-12-16T18:22:24.441Z,97557.00
2022-12-16T18:25:12.518Z,97559.13
2022-12-16T18:27:59.160Z,97562.22
2022-12-16T18:30:45.526Z,97565.81
2022-12-16T18:33:32.436Z,97568.91
2022-12-16T18:36:33.706Z,97576.78
2022-12-16T18:39:20.225Z,97578.47
2022-12-16T18:42:08.410Z,97579.28
2022-12-16T18:45:00.666Z,97588.03
2022-12-16T18:47:47.636Z,97581.31
2022-12-16T18:50:45.651Z,97580.78
2022-12-16T18:53:32.151Z,97598.34
2022-12-16T18:56:21.171Z,97595.34
2022-12-16T18:59:09.287Z,97593.69
2022-12-16T19:01:56.022Z,97606.25
2022-12-16T19:04:42.806Z,97608.81
2022-12-16T19:07:33.382Z,97614.19
2022-12-16T19:10:27.213Z,97613.28
2022-12-16T19:13:15.014Z,97615.31
2022-12-16T19:16:11.032Z,97620.41
2022-12-16T19:18:57.779Z,97623.44
2022-12-16T19:21:51.326Z,97631.06
2022-12-16T19:24:39.123Z,97625.75
2022-12-16T19:27:25.732Z,97629.59
2022-12-16T19:30:12.451Z,97626.28
2022-12-16T19:33:00.890Z,97634.53
2022-12-16T19:35:47.886Z,97627.41
2022-12-16T19:38:35.442Z,97630.97
2022-12-16T19:41:22.120Z,97640.44
2022-12-16T19:44:08.860Z,97633.22
2022-12-16T19:46:56.497Z,97640.34
2022-12-16T19:49:44.975Z,97650.63
2022-12-16T19:52:32.203Z,97651.84
2022-12-16T19:55:19.168Z,97656.59
2022-12-16T19:58:06.110Z,97658.78
2022-12-16T20:00:52.401Z,97677.84
2022-12-16T20:03:40.256Z,97674.16
2022-12-16T20:06:29.206Z,97687.13
2022-12-16T20:09:21.938Z,97683.16
2022-12-16T20:12:11.005Z,97681.56
2022-12-16T20:14:59.138Z,97684.34
2022-12-16T20:17:45.872Z,97692.81
2022-12-16T20:20:32.990Z,97692.25
2022-12-16T20:23:23.046Z,97705.00
2022-12-16T20:26:14.269Z,97705.38
2022-12-16T20:29:01.222Z,97706.53
2022-12-16T20:31:53.343Z,97712.50
2022-12-16T20:34:43.053Z,97711.72
2022-12-16T20:37:30.247Z,97705.69
2022-12-16T20:40:18.159Z,97700.16
2022-12-16T20:43:07.658Z,97698.56
2022-12-16T20:45:57.192Z,97707.72
2022-12-16T20:48:44.268Z,97709.75
2022-12-16T20:51:30.605Z,97716.00
2022-12-16T20:54:17.515Z,97718.78
2022-12-16T20:57:08.267Z,97723.16
2022-12-16T20:59:59.325Z,97724.75
2022-12-16T21:02:46.740Z,97721.63
2022-12-16T21:05:33.442Z,97720.94
2022-12-16T21:08:20.086Z,97720.22
2022-12-16T21:11:14.456Z,97719.78
2022-12-16T21:14:02.680Z,97725.69
2022-12-16T21:16:50.927Z,97733.50
2022-12-16T21:19:34.562Z,97734.97
2022-12-16T21:22:21.018Z,97730.91
2022-12-16T21:25:07.632Z,97741.25
2022-12-16T21:27:54.877Z,97738.91
2022-12-16T21:30:43.900Z,97727.41
2022-12-16T21:33:36.593Z,97742.09
2022-12-16T21:36:24.328Z,97744.50
2022-12-16T21:39:11.015Z,97743.69
2022-12-16T21:41:57.543Z,97754.22
2022-12-16T21:44:43.946Z,97744.31
2022-12-16T21:47:31.862Z,97752.44
2022-12-16T21:50:18.431Z,97762.28
2022-12-16T21:53:06.982Z,97761.09
2022-12-16T21:55:53.498Z,97767.69
2022-12-16T21:58:40.242Z,97776.78
2022-12-16T22:01:27.474Z,97777.97
2022-12-16T22:04:15.417Z,97787.13
2022-12-16T22:07:02.050Z,97787.94
2022-12-16T22:09:48.682Z,97803.06
2022-12-16T22:12:35.226Z,97803.00
2022-12-16T22:15:21.778Z,97808.41
2022-12-16T22:18:08.366Z,97810.31
2022-12-16T22:20:53.633Z,97806.00
2022-12-16T22:23:47.041Z,97811.47
2022-12-16T22:26:33.750Z,97801.13
2022-12-16T22:29:23.237Z,97793.97
2022-12-16T22:32:09.373Z,97805.19
2022-12-16T22:34:55.893Z,97805.19
2022-12-16T22:37:43.579Z,97799.75
2022-12-16T22:40:30.096Z,97801.78
2022-12-16T22:43:16.617Z,97795.13
2022-12-16T22:46:03.264Z,97797.97
2022-12-16T22:48:49.821Z,97791.19
2022-12-16T22:51:36.275Z,97782.50
2022-12-16T22:54:24.366Z,97769.91
2022-12-16T22:57:10.854Z,97758.84
2022-12-16T22:59:57.702Z,97767.56
2022-12-16T23:02:44.423Z,97770.78
2022-12-16T23:05:31.015Z,97764.44
2022-12-16T23:08:17.635Z,97769.91
2022-12-16T23:11:13.157Z,97770.78
2022-12-16T23:13:59.634Z,97767.56
2022-12-16T23:16:46.196Z,97775.00
2022-12-16T23:19:32.786Z,97786.53
2022-12-16T23:22:19.351Z,97779.16
2022-12-16T23:25:06.088Z,97781.19
2022-12-16T23:27:53.736Z,97784.19
2022-12-16T23:30:36.509Z,97769.78
2022-12-16T23:33:23.265Z,97779.28
2022-12-16T23:36:09.686Z,97772.13
2022-12-16T23:38:56.466Z,97776.06
2022-12-16T23:41:42.981Z,97774.13
2022-12-16T23:44:30.905Z,97774.53
2022-12-16T23:47:17.518Z,97782.34
2022-12-16T23:50:04.265Z,97780.38
2022-12-16T23:52:50.689Z,97768.06
2022-12-16T23:55:37.174Z,97765.28
2022-12-16T23:58:24.938Z,97761.78
